Ufa, Russia
Current Conditions -  °F | °C
As of 4:30 AM on Thursday 23 Oct 2014 (Local Time) from UWUU Reporting Station
Light Snow Light Snow  
Wind Chill: 11°   Ceiling: 2100
Heat Index: 25°   Visibility: 6mi
Dew Point: 16°   Wind: 18mph
Humidity: 69%   Direction: 280°W
Pressure: 29.65"   Gusts: 25mph
Location:  54.78°N, 56.04°E
Report Text: UWUU 222330Z 28008G11MPS 9999 -SN OVC021 M04/M09 Q1004 320///60NOSIG RMK QFE740/0987
Loading
Personal Weather Stations






























Interactive Weather Map
Tropical Storm Tracking
New forecast layout! Learn more

10-Day Weather Forecast

Advertisements
Track Severe Weather on mobile